Bakerton, West Virginia
Current Conditions -  °F | °C
As of 4:53 AM on Saturday 22 Nov 2014 (Local Time) from KMRB Reporting Station
Clear Clear  
Wind Chill: 15°   Ceiling: Unl
Heat Index: 15°   Visibility: 8mi
Dew Point:   Wind: 0mph
Humidity: 74%   Direction: NA
Pressure: 30.48"   Gusts: NA
Location:  39.36°N, 77.76°W
Report Text: KMRB 220953Z AUTO 00000KT 8SM CLR M09/M13 A3048 RMK AO2 SLP330 T10941133 TSNO
Loading
Personal Weather Stations






























Interactive Weather Map New forecast layout! Learn more

10-Day Weather Forecast

Advertisements
Track Severe Weather on mobile